createdAt,value
2023-02-11T00:01:36.434Z,6.33
2023-02-11T00:04:06.685Z,6.10
2023-02-11T00:06:39.446Z,6.07
2023-02-11T00:09:09.984Z,6.30
2023-02-11T00:11:40.103Z,6.43
2023-02-11T00:14:10.867Z,5.83
2023-02-11T00:16:43.172Z,6.03
2023-02-11T00:19:10.392Z,6.10
2023-02-11T00:21:43.060Z,5.67
2023-02-11T00:24:10.425Z,5.73
2023-02-11T00:26:39.656Z,5.20
2023-02-11T00:29:06.917Z,5.50
2023-02-11T00:31:34.436Z,5.57
2023-02-11T00:34:03.795Z,5.53
2023-02-11T00:36:35.608Z,5.17
2023-02-11T00:39:02.925Z,5.50
2023-02-11T00:41:34.948Z,5.03
2023-02-11T00:44:03.105Z,5.27
2023-02-11T00:46:34.948Z,6.47
2023-02-11T00:49:02.177Z,5.40
2023-02-11T00:51:31.349Z,5.23
2023-02-11T00:53:58.482Z,5.23
2023-02-11T00:56:27.718Z,5.50
2023-02-11T00:58:56.076Z,4.50
2023-02-11T01:01:25.402Z,4.57
2023-02-11T01:03:52.517Z,4.50
2023-02-11T01:06:19.881Z,4.63
2023-02-11T01:08:49.563Z,4.27
2023-02-11T01:11:19.903Z,4.70
2023-02-11T01:13:50.524Z,5.20
2023-02-11T01:16:19.654Z,5.27
2023-02-11T01:18:47.538Z,4.77
2023-02-11T01:21:17.060Z,4.90
2023-02-11T01:23:49.396Z,4.83
2023-02-11T01:26:17.216Z,5.00
2023-02-11T01:28:44.594Z,4.83
2023-02-11T01:31:11.815Z,5.10
2023-02-11T01:33:41.641Z,4.70
2023-02-11T01:36:09.042Z,4.73
2023-02-11T01:38:36.486Z,4.97
2023-02-11T01:41:09.309Z,4.60
2023-02-11T01:43:42.245Z,5.07
2023-02-11T01:46:36.089Z,4.80
2023-02-11T01:49:21.518Z,4.60
2023-02-11T01:52:02.123Z,4.47
2023-02-11T01:54:53.038Z,4.93
2023-02-11T01:57:28.501Z,5.20
2023-02-11T02:00:10.771Z,5.30
2023-02-11T02:03:13.147Z,5.10
2023-02-11T02:05:40.223Z,4.73
2023-02-11T02:08:16.296Z,5.00
2023-02-11T02:10:47.516Z,5.57
2023-02-11T02:13:19.491Z,4.97
2023-02-11T02:15:58.013Z,5.10
2023-02-11T02:18:52.224Z,5.30
2023-02-11T02:21:43.613Z,5.20
2023-02-11T02:24:44.416Z,5.53
2023-02-11T02:27:23.560Z,5.63
2023-02-11T02:30:27.980Z,6.00
2023-02-11T02:33:20.567Z,5.13
2023-02-11T02:36:00.367Z,5.80
2023-02-11T02:38:55.289Z,5.47
2023-02-11T02:41:32.153Z,5.17
2023-02-11T02:43:59.466Z,5.70
2023-02-11T02:46:35.511Z,5.10
2023-02-11T02:49:12.441Z,5.23
2023-02-11T02:52:05.793Z,5.70
2023-02-11T02:55:11.255Z,5.97
2023-02-11T02:57:38.361Z,6.03
2023-02-11T03:00:12.618Z,6.07
2023-02-11T03:02:52.262Z,5.67
2023-02-11T03:05:43.345Z,5.20
2023-02-11T03:08:49.841Z,5.27
2023-02-11T03:11:19.551Z,5.33
2023-02-11T03:13:48.572Z,6.00
2023-02-11T03:16:25.945Z,5.50
2023-02-11T03:19:03.443Z,6.10
2023-02-11T03:21:36.316Z,5.27
2023-02-11T03:24:11.086Z,5.90
2023-02-11T03:26:46.761Z,5.70
2023-02-11T03:29:45.941Z,5.77
2023-02-11T03:32:29.363Z,5.40
2023-02-11T03:34:58.757Z,5.43
2023-02-11T03:37:35.203Z,5.77
2023-02-11T03:40:18.059Z,5.20
2023-02-11T03:43:01.480Z,5.33
2023-02-11T03:45:31.449Z,5.67
2023-02-11T03:48:21.429Z,5.43
2023-02-11T03:50:58.242Z,5.50
2023-02-11T03:53:25.497Z,5.43
2023-02-11T03:56:02.209Z,5.83
2023-02-11T03:58:31.950Z,5.37
2023-02-11T04:00:59.161Z,5.97
2023-02-11T04:03:28.747Z,5.40
2023-02-11T04:05:55.862Z,6.03
2023-02-11T04:08:25.276Z,6.60
2023-02-11T04:10:54.989Z,6.03
2023-02-11T04:13:22.480Z,6.10
2023-02-11T04:15:49.726Z,5.33
2023-02-11T04:18:19.248Z,6.10
2023-02-11T04:20:46.403Z,6.00
2023-02-11T04:23:14.537Z,5.87
2023-02-11T04:25:42.256Z,6.40
2023-02-11T04:28:09.468Z,6.97
2023-02-11T04:30:39.129Z,7.33
2023-02-11T04:33:06.320Z,6.37
2023-02-11T04:35:38.194Z,6.57
2023-02-11T04:38:07.631Z,7.10
2023-02-11T04:40:34.776Z,7.57
2023-02-11T04:43:01.949Z,7.00
2023-02-11T04:45:33.701Z,7.20
2023-02-11T04:48:06.931Z,7.20
2023-02-11T04:50:39.007Z,7.33
2023-02-11T04:53:06.116Z,6.63
2023-02-11T04:55:35.421Z,7.60
2023-02-11T04:58:04.600Z,7.43
2023-02-11T05:00:34.127Z,7.13
2023-02-11T05:03:03.790Z,7.63
2023-02-11T05:05:30.938Z,7.63
2023-02-11T05:08:00.299Z,8.37
2023-02-11T05:10:29.953Z,7.70
2023-02-11T05:12:59.295Z,8.20
2023-02-11T05:15:31.820Z,8.60
2023-02-11T05:18:03.629Z,7.67
2023-02-11T05:20:30.708Z,7.83
2023-02-11T05:22:57.822Z,8.30
2023-02-11T05:25:29.359Z,8.83
2023-02-11T05:27:56.648Z,8.73
2023-02-11T05:30:26.237Z,8.63
2023-02-11T05:32:53.622Z,8.40
2023-02-11T05:35:23.326Z,9.53
2023-02-11T05:37:50.496Z,9.43
2023-02-11T05:40:20.014Z,10.00
2023-02-11T05:42:49.620Z,8.10
2023-02-11T05:45:16.818Z,9.47
2023-02-11T05:47:46.160Z,8.93
2023-02-11T05:50:17.522Z,9.40
2023-02-11T05:52:44.869Z,8.60
2023-02-11T05:55:14.404Z,10.17
2023-02-11T05:57:44.615Z,10.20
2023-02-11T06:00:14.329Z,9.57
2023-02-11T06:02:46.399Z,10.93
2023-02-11T06:05:15.675Z,11.03
2023-02-11T06:07:42.995Z,11.13
2023-02-11T06:10:11.010Z,10.90
2023-02-11T06:12:45.121Z,11.03
2023-02-11T06:15:14.510Z,11.47
2023-02-11T06:17:43.973Z,10.70
2023-02-11T06:20:11.421Z,10.90
2023-02-11T06:22:38.592Z,11.57
2023-02-11T06:25:06.042Z,12.33
2023-02-11T06:27:37.613Z,12.40
2023-02-11T06:30:07.832Z,13.53
2023-02-11T06:32:44.007Z,14.57
2023-02-11T06:35:15.235Z,14.73
2023-02-11T06:37:42.949Z,14.43
2023-02-11T06:40:13.844Z,15.00
2023-02-11T06:42:43.818Z,14.40
2023-02-11T06:45:11.795Z,14.50
2023-02-11T06:47:42.315Z,13.87
2023-02-11T06:50:12.841Z,14.93
2023-02-11T06:52:42.313Z,15.43
2023-02-11T06:55:11.754Z,14.83
2023-02-11T06:57:43.542Z,16.73
2023-02-11T07:00:13.565Z,16.37
2023-02-11T07:02:45.834Z,16.50
2023-02-11T07:05:12.988Z,16.63
2023-02-11T07:07:42.233Z,17.20
2023-02-11T07:10:12.088Z,15.90
2023-02-11T07:12:41.487Z,16.13
2023-02-11T07:15:08.851Z,16.67
2023-02-11T07:17:36.239Z,16.17
2023-02-11T07:20:04.377Z,15.93
2023-02-11T07:22:33.775Z,17.80
2023-02-11T07:25:00.869Z,21.43
2023-02-11T07:27:32.624Z,22.77
2023-02-11T07:30:03.421Z,19.10
2023-02-11T07:32:32.008Z,18.93
2023-02-11T07:34:59.214Z,22.33
2023-02-11T07:37:26.394Z,21.87
2023-02-11T07:39:53.617Z,19.87
2023-02-11T07:42:23.205Z,21.00
2023-02-11T07:44:52.668Z,19.63
2023-02-11T07:47:22.255Z,17.70
2023-02-11T07:49:49.414Z,17.17
2023-02-11T07:52:16.597Z,20.83
2023-02-11T07:54:45.857Z,24.93
2023-02-11T07:57:13.027Z,21.90
2023-02-11T07:59:40.155Z,23.47
2023-02-11T08:02:09.557Z,22.53
2023-02-11T08:04:36.822Z,21.33
2023-02-11T08:07:06.849Z,20.53
2023-02-11T08:09:36.320Z,21.43
2023-02-11T08:12:05.742Z,20.03
2023-02-11T08:14:32.872Z,18.70
2023-02-11T08:16:59.968Z,17.90
2023-02-11T08:19:29.433Z,20.80
2023-02-11T08:22:00.669Z,22.50
2023-02-11T08:24:27.873Z,20.40
2023-02-11T08:26:59.542Z,21.20
2023-02-11T08:29:29.045Z,20.80
2023-02-11T08:31:56.150Z,26.13
2023-02-11T08:34:25.599Z,23.47
2023-02-11T08:36:52.751Z,22.30
2023-02-11T08:39:24.459Z,20.77
2023-02-11T08:42:15.437Z,21.53
2023-02-11T08:44:47.305Z,20.27
2023-02-11T08:47:14.435Z,19.80
2023-02-11T08:49:43.728Z,21.20
2023-02-11T08:52:12.944Z,20.10
2023-02-11T08:54:40.057Z,19.60
2023-02-11T08:57:07.156Z,18.37
2023-02-11T08:59:34.680Z,18.40
2023-02-11T09:02:04.300Z,18.17
2023-02-11T09:04:33.512Z,18.43
2023-02-11T09:07:02.997Z,19.63
2023-02-11T09:09:32.879Z,20.03
2023-02-11T09:12:02.478Z,20.27
2023-02-11T09:14:30.069Z,20.73
2023-02-11T09:16:59.678Z,20.63
2023-02-11T09:19:29.300Z,20.03
2023-02-11T09:21:59.710Z,22.27
2023-02-11T09:24:29.378Z,22.07
2023-02-11T09:27:01.035Z,22.37
2023-02-11T09:29:28.220Z,21.87
2023-02-11T09:31:57.590Z,20.53
2023-02-11T09:34:27.219Z,21.70
2023-02-11T09:36:56.608Z,22.73
2023-02-11T09:39:29.312Z,23.80
2023-02-11T09:42:08.676Z,22.53
2023-02-11T09:44:37.834Z,23.07
2023-02-11T09:47:26.327Z,22.90
2023-02-11T09:49:59.092Z,24.60
2023-02-11T09:52:34.967Z,24.07
2023-02-11T09:55:15.058Z,25.43
2023-02-11T09:57:42.219Z,24.83
2023-02-11T10:00:35.694Z,24.17
2023-02-11T10:03:50.364Z,22.73
2023-02-11T10:06:25.712Z,23.80
2023-02-11T10:09:23.295Z,24.60
2023-02-11T10:12:08.849Z,25.47
2023-02-11T10:15:00.769Z,26.03
2023-02-11T10:17:27.865Z,23.67
2023-02-11T10:19:57.965Z,24.47
2023-02-11T10:22:35.174Z,26.37
2023-02-11T10:25:22.412Z,24.20
2023-02-11T10:27:54.658Z,25.10
2023-02-11T10:30:35.439Z,26.00
2023-02-11T10:33:39.727Z,25.83
2023-02-11T10:36:07.195Z,25.30
2023-02-11T10:38:36.967Z,27.07
2023-02-11T10:41:04.905Z,24.47
2023-02-11T10:43:35.125Z,26.17
2023-02-11T10:46:05.807Z,26.47
2023-02-11T10:48:37.054Z,23.93
2023-02-11T10:51:14.544Z,26.30
2023-02-11T10:53:42.169Z,24.70
2023-02-11T10:56:25.867Z,24.60
2023-02-11T10:59:05.312Z,26.43
2023-02-11T11:01:49.678Z,23.90
2023-02-11T11:04:44.120Z,26.33
2023-02-11T11:07:23.289Z,24.70
2023-02-11T11:09:59.270Z,24.07
2023-02-11T11:12:36.604Z,23.57
2023-02-11T11:15:09.845Z,23.53
2023-02-11T11:17:39.409Z,23.13
2023-02-11T11:20:20.815Z,24.33
2023-02-11T11:23:16.933Z,23.87
2023-02-11T11:25:57.466Z,24.77
2023-02-11T11:28:29.700Z,24.50
2023-02-11T11:31:00.262Z,25.83
2023-02-11T11:33:34.459Z,24.37
2023-02-11T11:36:01.580Z,24.80
2023-02-11T11:38:33.337Z,25.03
2023-02-11T11:41:17.945Z,24.80
2023-02-11T11:44:00.190Z,25.40
2023-02-11T11:46:34.004Z,24.37
2023-02-11T11:49:26.964Z,26.70
2023-02-11T11:52:20.701Z,24.47
2023-02-11T11:54:58.102Z,23.23
2023-02-11T11:57:30.713Z,25.73
2023-02-11T12:00:00.641Z,25.70
2023-02-11T12:02:57.133Z,24.13
2023-02-11T12:05:47.518Z,24.83
2023-02-11T12:08:25.899Z,25.30
2023-02-11T12:11:09.534Z,24.03
2023-02-11T12:13:42.755Z,24.77
2023-02-11T12:16:52.793Z,25.57
2023-02-11T12:20:00.995Z,24.43
2023-02-11T12:22:54.110Z,25.23
2023-02-11T12:25:32.176Z,25.47
2023-02-11T12:28:26.826Z,24.93
2023-02-11T12:31:04.719Z,26.73
2023-02-11T12:34:00.386Z,24.43
2023-02-11T12:36:41.550Z,25.57
2023-02-11T12:39:39.627Z,25.00
2023-02-11T12:42:52.796Z,25.77
2023-02-11T12:45:29.415Z,26.57
2023-02-11T12:48:14.350Z,27.17
2023-02-11T12:50:55.250Z,25.53
2023-02-11T12:53:51.545Z,27.67
2023-02-11T12:56:33.752Z,26.37
2023-02-11T12:59:14.866Z,26.37
2023-02-11T13:01:44.689Z,26.17
2023-02-11T13:04:46.994Z,25.67
2023-02-11T13:07:27.222Z,26.27
2023-02-11T13:10:16.843Z,25.93
2023-02-11T13:13:08.725Z,26.13
2023-02-11T13:15:38.960Z,25.93
2023-02-11T13:18:44.843Z,25.43
2023-02-11T13:21:24.917Z,24.57
2023-02-11T13:24:05.574Z,25.97
2023-02-11T13:26:38.780Z,25.97
2023-02-11T13:29:49.360Z,26.70
2023-02-11T13:32:16.477Z,26.03
2023-02-11T13:34:43.621Z,25.53
2023-02-11T13:37:27.104Z,25.23
2023-02-11T13:39:58.274Z,26.80
2023-02-11T13:42:29.381Z,26.87
2023-02-11T13:44:58.883Z,25.57
2023-02-11T13:47:33.634Z,27.93
2023-02-11T13:50:05.042Z,26.33
2023-02-11T13:52:39.574Z,25.77
2023-02-11T13:55:13.641Z,26.40
2023-02-11T13:57:41.717Z,25.97
2023-02-11T14:00:32.910Z,29.53
2023-02-11T14:03:29.470Z,26.57
2023-02-11T14:06:27.018Z,26.53
2023-02-11T14:09:09.673Z,26.50
2023-02-11T14:11:44.848Z,27.63
2023-02-11T14:14:28.467Z,28.27
2023-02-11T14:17:00.997Z,28.37
2023-02-11T14:19:34.022Z,27.13
2023-02-11T14:22:15.172Z,28.03
2023-02-11T14:24:52.097Z,28.53
2023-02-11T14:27:28.183Z,28.60
2023-02-11T14:30:32.772Z,26.73
2023-02-11T14:33:08.972Z,28.10
2023-02-11T14:35:41.873Z,27.77
2023-02-11T14:38:40.226Z,29.20
2023-02-11T14:41:40.729Z,27.63
2023-02-11T14:44:22.556Z,29.67
2023-02-11T14:46:53.749Z,28.27
2023-02-11T14:49:27.295Z,27.10
2023-02-11T14:52:04.599Z,28.00
2023-02-11T14:54:34.875Z,28.03
2023-02-11T14:57:20.521Z,27.63
2023-02-11T15:00:02.374Z,28.20
2023-02-11T15:02:38.229Z,27.53
2023-02-11T15:05:21.959Z,28.70
2023-02-11T15:08:04.810Z,28.83
2023-02-11T15:10:38.833Z,28.47
2023-02-11T15:13:06.194Z,28.07
2023-02-11T15:15:40.702Z,28.17
2023-02-11T15:18:22.670Z,26.97
2023-02-11T15:20:54.635Z,28.30
2023-02-11T15:23:27.254Z,29.57
2023-02-11T15:26:03.185Z,28.50
2023-02-11T15:28:34.220Z,28.80
2023-02-11T15:31:13.542Z,29.50
2023-02-11T15:33:43.203Z,30.43
2023-02-11T15:36:16.966Z,29.17
2023-02-11T15:38:44.284Z,29.90
2023-02-11T15:41:37.261Z,30.40
2023-02-11T15:44:30.148Z,30.30
2023-02-11T15:46:57.728Z,30.40
2023-02-11T15:49:27.585Z,31.03
2023-02-11T15:51:58.163Z,30.13
2023-02-11T15:54:29.430Z,30.97
2023-02-11T15:57:07.591Z,31.63
2023-02-11T15:59:40.588Z,30.43
2023-02-11T16:02:12.210Z,29.97
2023-02-11T16:04:48.813Z,30.20
2023-02-11T16:07:40.428Z,30.23
2023-02-11T16:10:38.659Z,30.57
2023-02-11T16:13:08.816Z,31.57
2023-02-11T16:15:40.992Z,33.13
2023-02-11T16:18:36.737Z,31.23
2023-02-11T16:21:07.552Z,31.70
2023-02-11T16:23:43.836Z,31.13
2023-02-11T16:26:24.479Z,31.73
2023-02-11T16:28:52.354Z,31.73
2023-02-11T16:31:22.093Z,31.53
2023-02-11T16:33:49.251Z,33.03
2023-02-11T16:36:19.144Z,31.73
2023-02-11T16:38:49.432Z,31.10
2023-02-11T16:41:18.871Z,32.10
2023-02-11T16:43:48.192Z,31.60
2023-02-11T16:46:16.267Z,31.37
2023-02-11T16:48:46.026Z,31.00
2023-02-11T16:51:13.652Z,33.90
2023-02-11T16:53:45.346Z,32.60
2023-02-11T16:56:18.278Z,33.93
2023-02-11T16:58:45.719Z,33.07
2023-02-11T17:01:14.270Z,34.23
2023-02-11T17:03:43.901Z,34.33
2023-02-11T17:06:13.539Z,31.90
2023-02-11T17:08:41.483Z,34.80
2023-02-11T17:11:10.892Z,33.87
2023-02-11T17:13:39.540Z,34.17
2023-02-11T17:16:20.467Z,33.73
2023-02-11T17:18:50.656Z,33.13
2023-02-11T17:21:27.114Z,33.10
2023-02-11T17:23:55.866Z,34.47
2023-02-11T17:26:22.981Z,34.83
2023-02-11T17:28:50.404Z,36.00
2023-02-11T17:31:23.214Z,36.37
2023-02-11T17:33:52.730Z,34.80
2023-02-11T17:36:19.801Z,34.93
2023-02-11T17:38:49.188Z,34.03
2023-02-11T17:41:16.324Z,33.40
2023-02-11T17:43:43.766Z,32.47
2023-02-11T17:46:14.347Z,34.90
2023-02-11T17:48:41.667Z,34.97
2023-02-11T17:51:28.848Z,34.00
2023-02-11T17:53:58.380Z,33.83
2023-02-11T17:56:32.554Z,35.27
2023-02-11T17:59:02.916Z,35.80
2023-02-11T18:01:34.628Z,34.30
2023-02-11T18:04:05.532Z,36.03
2023-02-11T18:06:35.597Z,36.23
2023-02-11T18:09:04.485Z,35.20
2023-02-11T18:11:37.222Z,33.40
2023-02-11T18:14:07.776Z,36.17
2023-02-11T18:16:39.841Z,34.33
2023-02-11T18:19:11.461Z,35.67
2023-02-11T18:21:40.931Z,34.73
2023-02-11T18:24:08.257Z,35.13
2023-02-11T18:26:36.125Z,35.67
2023-02-11T18:29:05.489Z,34.73
2023-02-11T18:31:35.219Z,34.27
2023-02-11T18:34:04.102Z,33.80
2023-02-11T18:36:33.813Z,36.13
2023-02-11T18:39:00.984Z,36.53
2023-02-11T18:41:28.402Z,35.50
2023-02-11T18:43:58.688Z,35.27
2023-02-11T18:46:25.886Z,35.23
2023-02-11T18:48:57.811Z,34.60
2023-02-11T18:51:28.070Z,36.53
2023-02-11T18:53:57.454Z,35.03
2023-02-11T18:56:29.249Z,37.23
2023-02-11T18:59:01.205Z,36.17
2023-02-11T19:01:31.869Z,37.50
2023-02-11T19:04:02.894Z,35.33
2023-02-11T19:06:36.422Z,36.43
2023-02-11T19:09:11.632Z,37.20
2023-02-11T19:11:50.211Z,35.90
2023-02-11T19:14:19.205Z,37.57
2023-02-11T19:16:47.237Z,38.20
2023-02-11T19:19:17.572Z,37.73
2023-02-11T19:21:47.553Z,37.53
2023-02-11T19:24:18.894Z,37.17
2023-02-11T19:26:50.406Z,37.63
2023-02-11T19:29:18.198Z,37.13
2023-02-11T19:31:46.327Z,37.27
2023-02-11T19:34:19.907Z,37.83
2023-02-11T19:36:48.755Z,38.10
2023-02-11T19:39:21.156Z,37.27
2023-02-11T19:41:50.400Z,36.00
2023-02-11T19:44:20.064Z,36.73
2023-02-11T19:46:48.824Z,37.37
2023-02-11T19:49:22.795Z,37.17
2023-02-11T19:51:50.823Z,37.57
2023-02-11T19:54:21.205Z,38.20
2023-02-11T19:56:48.856Z,37.00
2023-02-11T19:59:21.201Z,37.63
2023-02-11T20:01:50.598Z,38.90
2023-02-11T20:04:17.906Z,39.47
2023-02-11T20:06:45.482Z,37.50
2023-02-11T20:09:14.655Z,38.70
2023-02-11T20:11:44.451Z,37.30
2023-02-11T20:14:15.749Z,36.73
2023-02-11T20:16:49.763Z,38.07
2023-02-11T20:19:20.416Z,38.47
2023-02-11T20:21:50.746Z,37.97
2023-02-11T20:24:20.524Z,38.33
2023-02-11T20:26:48.593Z,38.60
2023-02-11T20:29:18.866Z,39.20
2023-02-11T20:31:46.278Z,38.33
2023-02-11T20:34:17.588Z,38.40
2023-02-11T20:36:51.521Z,39.13
2023-02-11T20:39:21.760Z,37.20
2023-02-11T20:41:49.837Z,39.87
2023-02-11T20:44:22.900Z,39.17
2023-02-11T20:46:54.126Z,39.10
2023-02-11T20:49:24.060Z,38.33
2023-02-11T20:51:53.604Z,40.37
2023-02-11T20:54:27.170Z,39.47
2023-02-11T20:56:55.397Z,37.97
2023-02-11T20:59:22.999Z,38.20
2023-02-11T21:01:56.016Z,37.67
2023-02-11T21:04:27.038Z,39.87
2023-02-11T21:07:01.548Z,39.40
2023-02-11T21:09:33.196Z,38.97
2023-02-11T21:12:00.974Z,38.10
2023-02-11T21:14:28.450Z,39.60
2023-02-11T21:16:55.725Z,38.00
2023-02-11T21:19:23.009Z,38.97
2023-02-11T21:21:57.284Z,39.13
2023-02-11T21:24:30.800Z,38.33
2023-02-11T21:26:58.409Z,40.33
2023-02-11T21:29:25.570Z,38.90
2023-02-11T21:31:52.852Z,38.63
2023-02-11T21:34:22.675Z,38.17
2023-02-11T21:36:52.660Z,39.23
2023-02-11T21:39:20.454Z,40.00
2023-02-11T21:41:47.809Z,40.10
2023-02-11T21:44:17.037Z,38.73
2023-02-11T21:46:48.899Z,39.23
2023-02-11T21:49:16.220Z,40.67
2023-02-11T21:51:49.984Z,40.27
2023-02-11T21:54:20.186Z,39.13
2023-02-11T21:56:50.510Z,39.03
2023-02-11T21:59:18.019Z,41.07
2023-02-11T22:01:48.588Z,41.47
2023-02-11T22:04:18.242Z,41.73
2023-02-11T22:06:47.644Z,41.53
2023-02-11T22:09:14.802Z,41.30
2023-02-11T22:11:41.922Z,38.37
2023-02-11T22:14:09.215Z,37.77
2023-02-11T22:16:36.419Z,36.40
2023-02-11T22:19:05.989Z,35.43
2023-02-11T22:21:33.236Z,35.47
2023-02-11T22:24:01.333Z,35.13
2023-02-11T22:26:30.816Z,34.90
2023-02-11T22:29:00.554Z,33.73
2023-02-11T22:31:33.520Z,32.13
2023-02-11T22:34:06.232Z,32.77
2023-02-11T22:36:36.883Z,31.23
2023-02-11T22:39:11.566Z,30.83
2023-02-11T22:41:43.653Z,30.37
2023-02-11T22:44:11.474Z,30.50
2023-02-11T22:46:38.996Z,28.90
2023-02-11T22:49:08.405Z,29.23
2023-02-11T22:51:39.420Z,27.17
2023-02-11T22:54:10.258Z,28.07
2023-02-11T22:56:37.363Z,27.80
2023-02-11T22:59:12.941Z,29.63
2023-02-11T23:01:43.153Z,28.90
2023-02-11T23:04:13.441Z,29.27
2023-02-11T23:06:43.367Z,28.77
2023-02-11T23:09:13.874Z,25.90
2023-02-11T23:11:41.596Z,27.97
2023-02-11T23:14:11.957Z,27.27
2023-02-11T23:16:39.571Z,27.90
2023-02-11T23:19:11.136Z,28.17
2023-02-11T23:21:41.778Z,27.73
2023-02-11T23:24:12.722Z,26.57
2023-02-11T23:26:43.711Z,27.50
2023-02-11T23:29:11.337Z,28.57
2023-02-11T23:31:43.005Z,28.83
2023-02-11T23:34:12.704Z,27.57
2023-02-11T23:36:39.863Z,28.20
2023-02-11T23:39:07.020Z,28.07
2023-02-11T23:41:36.327Z,27.03
2023-02-11T23:44:03.520Z,28.50
2023-02-11T23:46:30.674Z,29.77
2023-02-11T23:49:00.044Z,27.80
2023-02-11T23:51:29.335Z,26.03
2023-02-11T23:54:02.454Z,29.63
2023-02-11T23:56:36.917Z,27.63
2023-02-11T23:59:06.525Z,27.33
